Time;durP1;ratioP1;P1;durP2;ratioP2;P2;SDS_P1;SDS_P2;PMS_P1;PMS_P2;Temp;Humidity;BMP_temperature;BMP_pressure;BME280_temperature;BME280_humidity;BME280_pressure;Samples;Min_cycle;Max_cycle;Signal;HPM_P1;HPM_P2
2023/04/18 00:01:14;;;;;;;7.68;4.53;;;;;;;9.07;79.52;102837.09;4975711;28;97786;-31
2023/04/18 00:03:39;;;;;;;7.25;4.03;;;;;;;9.03;79.19;102834.50;4974314;28;97019;-32
2023/04/18 00:06:05;;;;;;;10.18;4.88;;;;;;;8.99;79.94;102836.41;4976152;28;96803;-32
2023/04/18 00:08:32;;;;;;;6.15;3.88;;;;;;;8.98;80.35;102825.63;4975261;28;98726;-31
2023/04/18 00:10:57;;;;;;;6.55;4.20;;;;;;;9.00;79.31;102835.47;4975521;28;97928;-32
2023/04/18 00:13:22;;;;;;;8.95;4.43;;;;;;;8.97;80.38;102835.53;4975456;28;96700;-31
2023/04/18 00:15:48;;;;;;;6.85;3.85;;;;;;;9.00;80.04;102838.16;4975811;28;96781;-31
2023/04/18 00:18:16;;;;;;;8.93;3.80;;;;;;;8.98;79.42;102842.72;4974866;28;97885;-32
2023/04/18 00:20:41;;;;;;;6.63;3.83;;;;;;;8.99;79.75;102836.41;4975285;28;99140;-32
2023/04/18 00:23:07;;;;;;;4.95;3.17;;;;;;;8.97;80.57;102835.53;4975640;28;96652;-32
2023/04/18 00:25:32;;;;;;;8.45;3.60;;;;;;;8.92;80.07;102835.66;4975650;28;96808;-32
2023/04/18 00:27:58;;;;;;;10.68;4.53;;;;;;;8.95;80.15;102836.50;4975429;28;97941;-31
2023/04/18 00:30:23;;;;;;;6.75;3.92;;;;;;;8.94;79.71;102838.34;4974744;28;97811;-32
2023/04/18 00:32:48;;;;;;;6.93;4.07;;;;;;;8.88;79.91;102839.34;4973906;28;96740;-31
2023/04/18 00:35:14;;;;;;;7.53;4.50;;;;;;;8.90;80.55;102836.63;4975657;28;96820;-32
2023/04/18 00:37:39;;;;;;;8.57;4.15;;;;;;;8.92;80.46;102838.34;4974387;28;98800;-32
2023/04/18 00:40:05;;;;;;;6.03;3.58;;;;;;;8.90;79.85;102834.78;4974990;28;99371;-31
2023/04/18 00:42:30;;;;;;;5.20;3.38;;;;;;;8.87;80.08;102821.34;4975186;28;96572;-31
2023/04/18 00:44:56;;;;;;;8.15;3.90;;;;;;;8.82;80.32;102820.56;4975506;28;96708;-32
2023/04/18 00:47:21;;;;;;;5.82;3.85;;;;;;;8.81;79.77;102831.41;4974753;28;97405;-32
2023/04/18 00:49:47;;;;;;;7.90;4.35;;;;;;;8.77;79.42;102827.91;4974924;28;97873;-31
2023/04/18 00:52:14;;;;;;;6.57;3.53;;;;;;;8.82;79.45;102820.56;4973952;28;96632;-31
2023/04/18 00:54:40;;;;;;;6.35;4.15;;;;;;;8.81;78.89;102826.00;4974005;28;96857;-31
2023/04/18 00:57:06;;;;;;;7.80;4.57;;;;;;;8.78;79.04;102824.25;4973346;28;101025;-31
2023/04/18 00:59:35;;;;;;;7.43;4.72;;;;;;;8.72;79.34;102824.38;4973376;28;100652;-31
2023/04/18 01:02:03;;;;;;;6.78;4.18;;;;;;;8.67;79.47;102824.47;4975017;28;96645;-31
2023/04/18 01:04:30;;;;;;;7.18;4.38;;;;;;;8.67;79.34;102826.31;4973713;28;96897;-31
2023/04/18 01:06:56;;;;;;;9.38;4.32;;;;;;;8.64;78.32;102819.16;4973203;28;101449;-31
2023/04/18 01:09:23;;;;;;;6.35;3.55;;;;;;;8.63;78.03;102822.78;4974394;28;99148;-32
2023/04/18 01:11:49;;;;;;;6.70;3.70;;;;;;;8.56;77.86;102817.56;4957416;28;96649;-31
2023/04/18 01:14:14;;;;;;;6.32;4.00;;;;;;;8.60;77.82;102811.16;4974983;28;96664;-31
2023/04/18 01:16:40;;;;;;;12.20;3.75;;;;;;;8.59;77.55;102812.09;4973171;28;100968;-32
2023/04/18 01:19:05;;;;;;;6.43;3.75;;;;;;;8.56;77.77;102812.16;4974945;28;99732;-32
2023/04/18 01:21:35;;;;;;;6.82;3.60;;;;;;;8.53;77.71;102814.91;4974863;28;96618;-32
2023/04/18 01:24:10;;;;;;;5.25;3.03;;;;;;;8.54;77.70;102805.91;4974977;28;96551;-31
2023/04/18 01:26:35;;;;;;;5.35;3.42;;;;;;;8.54;77.49;102808.59;4972528;28;101178;-31
2023/04/18 01:29:00;;;;;;;5.00;3.10;;;;;;;8.47;77.25;102811.41;4974472;28;97784;-31
2023/04/18 01:31:26;;;;;;;5.35;3.13;;;;;;;8.46;77.07;102800.63;4977560;28;96804;-31
2023/04/18 01:33:51;;;;;;;7.80;3.63;;;;;;;8.45;76.60;102805.16;4978435;28;96825;-32
2023/04/18 01:36:16;;;;;;;7.13;3.53;;;;;;;8.41;76.46;102794.44;4978012;28;97343;-31
2023/04/18 01:38:42;;;;;;;6.13;4.10;;;;;;;8.38;76.44;102799.88;4977910;28;97771;-31
2023/04/18 01:41:07;;;;;;;5.63;3.58;;;;;;;8.33;76.58;102804.50;4978079;28;96623;-31
2023/04/18 01:43:32;;;;;;;5.85;3.50;;;;;;;8.29;76.48;102801.88;4978533;28;96723;-32
2023/04/18 01:45:58;;;;;;;6.50;3.45;;;;;;;8.27;76.93;102800.09;4978132;28;97351;-32
2023/04/18 01:48:23;;;;;;;9.52;4.38;;;;;;;8.26;76.53;102804.59;4977174;28;108565;-31
2023/04/18 01:50:48;;;;;;;6.40;3.38;;;;;;;8.27;75.99;102810.88;4977621;28;96465;-31
2023/04/18 01:53:14;;;;;;;7.38;3.58;;;;;;;8.19;76.36;102805.66;4977772;28;96695;-31
2023/04/18 01:55:39;;;;;;;7.13;4.03;;;;;;;8.16;76.11;102804.84;4977414;28;99755;-31
2023/04/18 01:58:04;;;;;;;6.50;3.78;;;;;;;8.12;75.99;102804.00;4977563;28;98297;-32
2023/04/18 02:00:30;;;;;;;6.18;3.17;;;;;;;8.11;75.86;102802.22;4977709;28;96545;-32
2023/04/18 02:02:57;;;;;;;5.88;3.28;;;;;;;8.12;75.82;102801.31;4978010;28;96774;-31
2023/04/18 02:05:23;;;;;;;10.77;3.50;;;;;;;8.13;75.44;102815.69;4975950;28;100740;-32
2023/04/18 02:07:49;;;;;;;5.03;2.88;;;;;;;8.12;75.66;102808.50;4978221;28;97248;-31
2023/04/18 02:10:14;;;;;;;5.82;3.00;;;;;;;8.03;75.38;102798.78;4976143;28;96581;-31
2023/04/18 02:12:39;;;;;;;3.95;2.70;;;;;;;8.01;75.05;102795.25;4977712;28;96797;-31
2023/04/18 02:15:05;;;;;;;6.63;3.42;;;;;;;8.05;75.50;102811.31;4977265;28;97318;-32
2023/04/18 02:17:31;;;;;;;5.05;2.72;;;;;;;7.99;74.96;102797.97;4975745;28;101956;-32
2023/04/18 02:19:56;;;;;;;5.28;3.20;;;;;;;7.93;75.11;102798.06;4977697;28;96509;-32
2023/04/18 02:22:21;;;;;;;5.32;2.63;;;;;;;7.88;74.97;102798.16;4977467;28;96708;-32
2023/04/18 02:24:47;;;;;;;6.72;3.33;;;;;;;7.85;74.58;102800.91;4977264;28;97876;-31
2023/04/18 02:27:12;;;;;;;4.90;3.05;;;;;;;7.83;74.56;102791.97;4977083;28;97253;-32
2023/04/18 02:29:38;;;;;;;4.28;2.72;;;;;;;7.78;74.42;102799.25;4977144;28;96547;-31
2023/04/18 02:32:03;;;;;;;4.93;3.10;;;;;;;7.75;74.04;102782.25;4977498;28;96743;-32
2023/04/18 02:34:29;;;;;;;5.30;3.03;;;;;;;7.79;73.74;102792.03;4976792;28;99710;-31
2023/04/18 02:36:54;;;;;;;4.55;2.30;;;;;;;7.71;73.38;102794.88;4976831;28;99077;-31
2023/04/18 02:39:20;;;;;;;4.20;2.58;;;;;;;7.68;73.33;102789.56;4976630;28;96555;-31
2023/04/18 02:41:45;;;;;;;3.75;2.33;;;;;;;7.63;73.19;102792.34;4977109;28;96721;-33
2023/04/18 02:44:10;;;;;;;4.22;2.53;;;;;;;7.56;72.77;102798.75;4976830;28;98484;-32
2023/04/18 02:46:35;;;;;;;3.63;2.63;;;;;;;7.53;72.72;102797.91;4976715;28;102199;-32
2023/04/18 02:49:01;;;;;;;6.90;2.45;;;;;;;7.53;72.68;102796.13;4977022;28;96564;-31
2023/04/18 02:51:26;;;;;;;5.75;2.80;;;;;;;7.44;72.53;102798.97;4977118;28;96782;-31
2023/04/18 02:53:53;;;;;;;4.82;2.65;;;;;;;7.42;72.41;102792.72;4976449;28;99241;-31
2023/04/18 02:56:20;;;;;;;3.50;2.13;;;;;;;7.35;72.22;102794.63;4975637;28;100958;-32
2023/04/18 02:58:46;;;;;;;3.38;2.20;;;;;;;7.31;72.19;102794.69;4975571;28;96576;-32
2023/04/18 03:01:11;;;;;;;3.67;2.03;;;;;;;7.34;72.03;102798.25;4975435;28;96815;-32
2023/04/18 03:03:37;;;;;;;3.45;2.08;;;;;;;7.33;71.95;102799.13;4975891;28;99238;-31
2023/04/18 03:06:02;;;;;;;3.00;1.73;;;;;;;7.32;71.87;102799.19;4976919;28;97849;-31
2023/04/18 03:08:27;;;;;;;5.05;2.55;;;;;;;7.28;71.38;102802.84;4976894;28;96482;-32
2023/04/18 03:10:54;;;;;;;5.00;2.63;;;;;;;7.26;70.66;102794.75;4976260;28;98999;-32
2023/04/18 03:13:19;;;;;;;4.53;2.58;;;;;;;7.23;71.61;102802.91;4976126;28;99374;-32
2023/04/18 03:15:45;;;;;;;3.38;2.45;;;;;;;7.18;71.71;102800.28;4976326;28;97847;-31
2023/04/18 03:18:11;;;;;;;5.40;2.00;;;;;;;7.17;71.63;102803.00;4976664;28;96649;-31
2023/04/18 03:20:37;;;;;;;6.13;2.53;;;;;;;7.15;70.90;102794.94;4976717;28;97060;-31
2023/04/18 03:23:02;;;;;;;3.30;2.15;;;;;;;7.12;71.36;102803.06;4974962;28;98915;-31
2023/04/18 03:25:27;;;;;;;4.47;2.40;;;;;;;7.14;71.51;102800.34;4976327;28;97779;-31
2023/04/18 03:27:53;;;;;;;2.75;2.00;;;;;;;7.18;71.69;102802.09;4975667;28;96610;-32
2023/04/18 03:30:19;;;;;;;5.57;2.72;;;;;;;7.15;71.56;102803.03;4975376;28;96883;-32
2023/04/18 03:32:45;;;;;;;4.25;2.22;;;;;;;7.06;71.12;102811.25;4974667;28;101681;-31
2023/04/18 03:35:10;;;;;;;4.13;2.70;;;;;;;7.07;71.31;102806.75;4976008;28;98299;-31
2023/04/18 03:37:36;;;;;;;5.38;2.58;;;;;;;7.01;70.85;102805.06;4976226;28;96561;-31
2023/04/18 03:40:02;;;;;;;3.00;2.15;;;;;;;6.99;70.45;102817.66;4976397;28;96736;-31
2023/04/18 03:42:28;;;;;;;4.63;2.10;;;;;;;6.97;70.87;102814.97;4974186;28;101221;-32
2023/04/18 03:44:53;;;;;;;3.22;1.85;;;;;;;6.97;70.67;102806.00;4976255;28;97852;-31
2023/04/18 03:47:18;;;;;;;4.07;2.35;;;;;;;6.92;71.35;102813.28;4975878;28;96798;-31
2023/04/18 03:49:44;;;;;;;3.85;2.55;;;;;;;6.87;70.52;102813.34;4975901;28;96780;-31
2023/04/18 03:52:09;;;;;;;2.50;1.80;;;;;;;6.91;70.71;102809.69;4974645;28;98824;-31
2023/04/18 03:54:34;;;;;;;3.58;2.13;;;;;;;6.94;70.81;102808.75;4975547;28;99113;-31
2023/04/18 03:57:01;;;;;;;3.95;2.28;;;;;;;7.01;70.99;102810.44;4975927;28;96623;-32
2023/04/18 03:59:26;;;;;;;5.82;3.17;;;;;;;6.98;70.60;102807.78;4975804;28;96879;-32
2023/04/18 04:01:52;;;;;;;5.07;2.70;;;;;;;6.95;70.75;102803.31;4975752;28;97371;-31
2023/04/18 04:04:17;;;;;;;2.97;2.20;;;;;;;7.01;70.60;102802.38;4975618;28;97628;-31
2023/04/18 04:06:42;;;;;;;7.10;2.47;;;;;;;7.00;70.09;102814.03;4975929;28;96617;-31
2023/04/18 04:09:08;;;;;;;3.45;2.38;;;;;;;7.00;69.88;102817.63;4976653;28;96766;-31
2023/04/18 04:11:33;;;;;;;3.55;2.25;;;;;;;7.00;69.90;102816.72;4975339;28;97940;-32
2023/04/18 04:13:58;;;;;;;5.00;2.80;;;;;;;6.96;70.12;102812.28;4975628;28;97786;-31
2023/04/18 04:16:24;;;;;;;6.78;3.03;;;;;;;6.94;69.92;102825.81;4975444;28;96431;-31
2023/04/18 04:18:49;;;;;;;5.88;2.72;;;;;;;6.93;69.51;102821.31;4975931;28;97069;-31
2023/04/18 04:21:14;;;;;;;4.75;2.75;;;;;;;6.95;69.51;102822.19;4975473;28;97912;-31
2023/04/18 04:23:45;;;;;;;3.80;2.80;;;;;;;6.95;69.21;102815.91;4975331;28;97357;-31
2023/04/18 04:26:10;;;;;;;4.88;2.65;;;;;;;6.91;69.05;102815.09;4975440;28;96591;-32
2023/04/18 04:28:37;;;;;;;3.40;2.28;;;;;;;6.93;69.57;102815.03;4975580;28;96798;-32
2023/04/18 04:31:05;;;;;;;7.68;2.53;;;;;;;6.93;69.77;102823.13;4974591;28;97326;-31
2023/04/18 04:33:34;;;;;;;4.75;2.50;;;;;;;6.92;69.64;102815.97;4974182;28;100818;-32
2023/04/18 04:36:00;;;;;;;2.00;1.40;;;;;;;6.88;69.22;102808.84;4973973;28;96526;-31
2023/04/18 04:38:26;;;;;;;8.05;3.42;;;;;;;6.82;69.80;102809.81;4975458;28;96750;-33
2023/04/18 04:40:51;;;;;;;3.90;2.33;;;;;;;6.80;69.30;102814.34;4973197;28;101277;-32
2023/04/18 04:43:19;;;;;;;5.63;3.20;;;;;;;6.72;69.66;102817.16;4974868;28;99113;-31
2023/04/18 04:45:48;;;;;;;4.13;2.45;;;;;;;6.71;69.37;102827.94;4975302;28;96486;-31
2023/04/18 04:48:14;;;;;;;4.35;2.92;;;;;;;6.70;69.45;102821.66;4973620;28;96885;-31
2023/04/18 04:50:40;;;;;;;3.53;2.22;;;;;;;6.69;69.66;102819.84;4973521;28;101146;-31
2023/04/18 04:53:06;;;;;;;4.10;2.70;;;;;;;6.69;69.55;102824.34;4973345;28;101103;-32
2023/04/18 04:55:32;;;;;;;4.22;2.38;;;;;;;6.67;69.01;102827.06;4973819;28;96525;-31
2023/04/18 04:57:57;;;;;;;4.25;2.55;;;;;;;6.63;69.42;102822.66;4975332;28;96673;-31
2023/04/18 05:00:23;;;;;;;6.93;3.10;;;;;;;6.61;69.68;102821.78;4974888;28;97873;-31
2023/04/18 05:02:50;;;;;;;4.60;2.33;;;;;;;6.57;69.36;102823.59;4974969;28;97353;-31
2023/04/18 05:05:15;;;;;;;6.32;3.42;;;;;;;6.57;69.01;102831.69;4972164;28;96602;-31
2023/04/18 05:07:40;;;;;;;4.00;2.60;;;;;;;6.60;69.48;102833.44;4973578;28;96857;-32
2023/04/18 05:10:06;;;;;;;4.05;2.15;;;;;;;6.53;69.79;102826.34;4974532;28;99817;-31
2023/04/18 05:12:31;;;;;;;3.50;2.35;;;;;;;6.57;69.70;102836.19;4973216;28;102217;-31
2023/04/18 05:14:57;;;;;;;11.00;3.45;;;;;;;6.56;69.74;102829.03;4975089;28;96601;-31
2023/04/18 05:17:22;;;;;;;3.95;1.98;;;;;;;6.56;69.55;102835.28;4975179;28;96759;-31
2023/04/18 05:19:47;;;;;;;5.25;2.58;;;;;;;6.58;69.45;102836.16;4974406;28;99448;-31
2023/04/18 05:22:13;;;;;;;4.00;2.67;;;;;;;6.60;69.51;102833.44;4975106;28;97340;-32
2023/04/18 05:24:38;;;;;;;3.03;2.28;;;;;;;6.63;69.66;102835.22;4974835;28;97482;-32
2023/04/18 05:27:04;;;;;;;5.35;2.92;;;;;;;6.62;69.50;102839.69;4975042;28;96739;-31
2023/04/18 05:29:30;;;;;;;6.00;3.28;;;;;;;6.64;69.97;102835.19;4973650;28;99338;-32
2023/04/18 05:31:55;;;;;;;5.13;2.88;;;;;;;6.65;69.60;102850.44;4973816;28;97288;-31
2023/04/18 05:34:20;;;;;;;6.32;2.97;;;;;;;6.66;69.42;102851.34;4974965;28;96577;-31
2023/04/18 05:36:46;;;;;;;7.35;2.47;;;;;;;6.67;69.68;102842.34;4974899;28;96823;-32
2023/04/18 05:39:12;;;;;;;3.75;2.08;;;;;;;6.69;69.86;102844.09;4973029;28;100768;-31
2023/04/18 05:41:38;;;;;;;5.80;2.88;;;;;;;6.70;69.82;102839.63;4973067;28;101152;-31
2023/04/18 05:44:03;;;;;;;3.63;2.05;;;;;;;6.71;69.90;102846.78;4974679;28;96486;-31
2023/04/18 05:46:29;;;;;;;4.45;2.53;;;;;;;6.75;69.67;102848.53;4975152;28;96765;-31
2023/04/18 05:48:54;;;;;;;3.60;2.67;;;;;;;6.75;69.75;102851.22;4974255;28;98079;-31
2023/04/18 05:51:19;;;;;;;3.53;2.63;;;;;;;6.76;70.01;102853.88;4974262;28;99842;-31
2023/04/18 05:53:44;;;;;;;5.65;3.20;;;;;;;6.73;70.19;102856.63;4973983;28;96758;-32
2023/04/18 05:56:10;;;;;;;6.32;2.63;;;;;;;6.75;70.05;102864.69;4974421;28;96816;-31
2023/04/18 05:58:35;;;;;;;6.90;3.15;;;;;;;6.71;70.22;102852.16;4974246;28;97883;-31
2023/04/18 06:01:01;;;;;;;4.68;2.75;;;;;;;6.75;70.53;102862.00;4974192;28;97748;-31
2023/04/18 06:03:26;;;;;;;4.13;2.90;;;;;;;6.78;70.68;102854.75;4974486;28;96628;-31
2023/04/18 06:05:51;;;;;;;3.15;2.17;;;;;;;6.78;70.98;102857.44;4974478;28;96775;-31
2023/04/18 06:08:17;;;;;;;6.03;3.28;;;;;;;6.80;70.57;102866.41;4973672;28;99602;-31
2023/04/18 06:10:42;;;;;;;4.68;2.40;;;;;;;6.83;70.94;102864.56;4974423;28;97758;-31
2023/04/18 06:13:07;;;;;;;4.88;2.75;;;;;;;6.91;71.03;102865.34;4974056;28;96737;-31
2023/04/18 06:15:33;;;;;;;4.10;2.58;;;;;;;6.91;71.20;102863.56;4974898;28;96713;-31
2023/04/18 06:17:59;;;;;;;4.03;3.15;;;;;;;6.94;71.24;102876.09;4975432;28;100300;-31
2023/04/18 06:20:24;;;;;;;3.53;2.40;;;;;;;6.95;71.48;102875.19;4977078;28;98619;-31
2023/04/18 06:22:49;;;;;;;6.85;3.28;;;;;;;6.96;71.28;102871.56;4977694;28;97219;-31
2023/04/18 06:25:15;;;;;;;6.00;3.28;;;;;;;6.92;71.29;102864.44;4977651;28;96736;-31
2023/04/18 06:27:40;;;;;;;5.20;3.00;;;;;;;6.93;71.39;102877.00;4977334;28;97860;-31
2023/04/18 06:30:07;;;;;;;5.65;2.85;;;;;;;6.93;71.84;102877.88;4976935;28;97828;-31
2023/04/18 06:32:32;;;;;;;6.10;4.00;;;;;;;6.93;71.65;102861.72;4975732;28;96529;-31
2023/04/18 06:34:58;;;;;;;3.78;2.30;;;;;;;6.93;71.83;102871.59;4976196;28;96853;-31
2023/04/18 06:37:23;;;;;;;7.22;3.13;;;;;;;6.94;71.79;102877.00;4976678;28;99219;-32
2023/04/18 06:39:49;;;;;;;6.20;2.35;;;;;;;6.95;71.83;102869.78;4976701;28;99530;-31
2023/04/18 06:42:14;;;;;;;3.35;2.55;;;;;;;6.95;71.98;102864.41;4976640;28;96532;-31
2023/04/18 06:44:41;;;;;;;5.95;2.88;;;;;;;6.97;72.23;102865.28;4977139;28;96891;-31
2023/04/18 06:47:07;;;;;;;3.90;2.63;;;;;;;7.00;72.20;102867.91;4976442;28;99226;-31
2023/04/18 06:49:33;;;;;;;5.20;2.15;;;;;;;7.01;72.46;102873.31;4977145;28;96523;-31
2023/04/18 06:51:58;;;;;;;4.95;2.80;;;;;;;7.07;72.30;102871.44;4976930;28;96657;-31
2023/04/18 06:54:23;;;;;;;4.03;3.03;;;;;;;7.12;72.21;102873.13;4977099;28;96757;-31
2023/04/18 06:56:49;;;;;;;3.95;2.60;;;;;;;7.21;71.79;102873.00;4976468;28;99182;-31
2023/04/18 06:59:14;;;;;;;4.55;2.95;;;;;;;7.25;71.74;102873.84;4977109;28;97324;-31
2023/04/18 07:01:43;;;;;;;3.53;2.47;;;;;;;7.32;72.14;102867.47;4976918;28;96722;-31
2023/04/18 07:04:08;;;;;;;6.50;3.13;;;;;;;7.45;71.96;102866.34;4975385;28;96871;-31
2023/04/18 07:06:35;;;;;;;4.38;2.80;;;;;;;7.56;71.80;102874.25;4975767;28;97876;-32
2023/04/18 07:09:01;;;;;;;4.32;2.40;;;;;;;7.62;71.53;102870.56;4975030;28;100920;-32
2023/04/18 07:11:27;;;;;;;7.88;3.05;;;;;;;7.71;71.32;102877.63;4976936;28;96634;-31
2023/04/18 07:13:52;;;;;;;5.53;3.25;;;;;;;7.70;71.54;102871.34;4975323;28;96826;-31
2023/04/18 07:16:18;;;;;;;5.05;2.40;;;;;;;7.75;71.35;102872.16;4974998;28;99472;-31
2023/04/18 07:18:43;;;;;;;4.70;2.08;;;;;;;7.79;71.67;102871.16;4976326;28;97898;-31
2023/04/18 07:21:09;;;;;;;5.28;3.30;;;;;;;7.82;71.39;102879.22;4976343;28;96759;-31
2023/04/18 07:23:34;;;;;;;5.88;2.78;;;;;;;7.91;71.12;102880.84;4977070;28;96775;-31
2023/04/18 07:26:01;;;;;;;6.20;3.40;;;;;;;7.98;70.97;102882.53;4976327;28;97812;-31
2023/04/18 07:28:27;;;;;;;4.85;3.20;;;;;;;8.05;71.12;102875.22;4973709;28;100886;-31
2023/04/18 07:30:55;;;;;;;3.58;2.20;;;;;;;8.06;71.15;102880.59;4973970;28;96923;-31
2023/04/18 07:33:21;;;;;;;4.38;2.92;;;;;;;8.04;71.38;102868.94;4975069;28;96799;-31
2023/04/18 07:35:46;;;;;;;6.78;3.38;;;;;;;8.03;71.23;102883.34;4975969;28;97894;-31
2023/04/18 07:38:12;;;;;;;4.65;3.15;;;;;;;8.07;71.32;102881.47;4976095;28;97792;-31
2023/04/18 07:40:37;;;;;;;6.13;2.83;;;;;;;8.05;71.58;102886.88;4976338;28;96630;-31
2023/04/18 07:43:02;;;;;;;4.20;2.55;;;;;;;8.08;71.53;102878.75;4976244;28;96815;-31
2023/04/18 07:45:28;;;;;;;3.20;1.92;;;;;;;8.15;71.54;102875.94;4975905;28;97312;-31
2023/04/18 07:47:53;;;;;;;6.28;3.13;;;;;;;8.14;71.61;102875.03;4974496;28;99282;-31
2023/04/18 07:50:19;;;;;;;4.93;2.95;;;;;;;8.13;71.57;102872.34;4975998;28;96805;-32
2023/04/18 07:52:46;;;;;;;4.38;2.90;;;;;;;8.11;71.45;102868.81;4976203;28;96763;-31
2023/04/18 07:55:13;;;;;;;3.97;2.33;;;;;;;8.15;71.73;102884.94;4973824;28;100943;-31
2023/04/18 07:57:38;;;;;;;4.43;2.65;;;;;;;8.12;71.59;102870.59;4974278;28;100931;-31
2023/04/18 08:00:05;;;;;;;4.13;2.08;;;;;;;8.06;71.86;102874.31;4976137;28;96701;-31
2023/04/18 08:02:30;;;;;;;3.47;2.45;;;;;;;8.09;71.99;102879.63;4976063;28;96727;-31
2023/04/18 08:04:55;;;;;;;3.78;2.38;;;;;;;8.13;72.42;102875.06;4973889;28;99195;-31
2023/04/18 08:07:21;;;;;;;3.92;2.53;;;;;;;8.16;72.15;102875.03;4975799;28;97787;-31
2023/04/18 08:09:47;;;;;;;6.28;2.60;;;;;;;8.17;71.94;102876.78;4975621;28;96454;-31
2023/04/18 08:12:12;;;;;;;3.55;2.47;;;;;;;8.17;71.90;102880.38;4974647;28;97804;-31
2023/04/18 08:14:37;;;;;;;5.72;3.25;;;;;;;8.24;71.72;102883.84;4975628;28;98002;-31
2023/04/18 08:17:03;;;;;;;3.58;2.33;;;;;;;8.26;72.07;102876.63;4975258;28;98758;-31
2023/04/18 08:19:28;;;;;;;4.40;2.50;;;;;;;8.25;71.80;102874.84;4975213;28;96746;-31
2023/04/18 08:22:05;;;;;;;3.10;1.98;;;;;;;8.31;71.80;102872.00;4976105;28;96745;-31
2023/04/18 08:24:30;;;;;;;4.20;2.22;;;;;;;8.46;71.94;102879.88;4975225;28;98860;-31
2023/04/18 08:26:56;;;;;;;4.68;2.53;;;;;;;8.55;71.54;102877.88;4974895;28;106180;-31
2023/04/18 08:29:22;;;;;;;4.85;2.28;;;;;;;8.62;71.37;102872.31;4975251;28;96606;-32
2023/04/18 08:31:47;;;;;;;4.55;3.13;;;;;;;8.72;71.36;102878.41;4974908;28;96781;-32
2023/04/18 08:34:12;;;;;;;4.57;2.08;;;;;;;8.76;71.11;102860.34;4975113;28;100354;-31
2023/04/18 08:36:37;;;;;;;4.80;2.65;;;;;;;8.83;71.06;102870.97;4975672;28;97982;-31
2023/04/18 08:39:03;;;;;;;4.78;2.50;;;;;;;8.86;70.79;102870.91;4975498;28;96460;-31
2023/04/18 08:41:33;;;;;;;3.65;2.13;;;;;;;8.85;70.67;102873.66;4975196;28;96570;-31
2023/04/18 08:43:58;;;;;;;3.38;1.77;;;;;;;8.71;69.94;102873.94;4973166;28;101007;-31
2023/04/18 08:46:24;;;;;;;5.20;2.72;;;;;;;8.77;70.52;102886.44;4975154;28;97266;-32
2023/04/18 08:48:50;;;;;;;4.05;2.35;;;;;;;8.76;70.77;102885.53;4974976;28;96887;-31
2023/04/18 08:51:15;;;;;;;4.65;3.00;;;;;;;8.75;70.70;102864.88;4975517;28;96776;-31
2023/04/18 08:53:43;;;;;;;6.25;2.65;;;;;;;8.77;70.84;102873.84;4974983;28;98083;-31
2023/04/18 08:56:09;;;;;;;4.80;2.58;;;;;;;8.85;70.67;102860.16;4973602;28;100675;-32
2023/04/18 08:58:34;;;;;;;3.95;2.03;;;;;;;9.17;70.58;102872.03;4975452;28;96435;-31
2023/04/18 09:01:00;;;;;;;3.90;2.10;;;;;;;9.56;69.49;102864.81;4975743;28;96912;-32
2023/04/18 09:03:40;;;;;;;5.95;2.92;;;;;;;9.91;68.47;102860.28;4974800;28;97893;-32
2023/04/18 09:06:07;;;;;;;3.83;2.42;;;;;;;10.07;66.87;102861.66;4973262;28;101206;-31
2023/04/18 09:08:34;;;;;;;4.93;2.70;;;;;;;10.05;67.21;102863.50;4973230;28;96574;-32
2023/04/18 09:11:27;;;;;;;6.25;2.65;;;;;;;10.04;67.70;102869.00;4974770;28;96799;-31
2023/04/18 09:13:55;;;;;;;3.53;1.85;;;;;;;9.91;67.52;102865.69;4974482;28;97958;-31
2023/04/18 09:16:21;;;;;;;4.38;2.17;;;;;;;9.84;67.39;102862.25;4974536;28;99186;-31
2023/04/18 09:19:16;;;;;;;4.68;2.42;;;;;;;9.80;67.85;102868.69;4974756;28;96540;-31
2023/04/18 09:21:47;;;;;;;3.05;1.83;;;;;;;9.62;67.67;102870.03;4973536;28;96839;-31
2023/04/18 09:24:22;;;;;;;4.07;2.50;;;;;;;9.53;68.15;102873.88;4974591;28;99373;-31
2023/04/18 09:26:48;;;;;;;3.80;2.50;;;;;;;9.48;67.81;102872.19;4957448;28;100735;-31
2023/04/18 09:29:16;;;;;;;2.80;1.85;;;;;;;9.47;68.20;102868.63;4973368;28;96549;-31
2023/04/18 09:31:53;;;;;;;4.53;2.08;;;;;;;9.51;68.55;102870.31;4974366;28;96811;-31
2023/04/18 09:34:23;;;;;;;4.18;2.50;;;;;;;9.57;68.38;102863.88;4973994;28;97605;-32
2023/04/18 09:37:10;;;;;;;3.00;1.88;;;;;;;9.72;68.64;102858.03;4973011;28;101037;-32
2023/04/18 09:39:40;;;;;;;3.40;2.45;;;;;;;9.71;68.50;102861.69;4973479;28;96547;-31
2023/04/18 09:42:06;;;;;;;4.63;2.53;;;;;;;9.78;68.25;102860.63;4973204;28;96892;-31
2023/04/18 09:44:32;;;;;;;2.97;2.00;;;;;;;9.88;67.96;102863.09;4973047;28;100204;-31
2023/04/18 09:46:57;;;;;;;3.80;2.10;;;;;;;10.00;67.74;102850.09;4974019;28;99020;-31
2023/04/18 09:49:23;;;;;;;4.10;2.03;;;;;;;10.17;67.18;102856.88;4975109;28;96481;-31
2023/04/18 09:51:52;;;;;;;2.88;1.85;;;;;;;10.48;66.32;102856.03;4977123;28;96811;-31
2023/04/18 09:54:19;;;;;;;3.40;2.15;;;;;;;10.60;66.53;102856.56;4977604;28;99336;-31
2023/04/18 09:56:46;;;;;;;6.13;2.95;;;;;;;10.65;65.76;102860.97;4976190;28;101131;-31
2023/04/18 09:59:15;;;;;;;3.72;1.85;;;;;;;10.68;64.80;102852.75;4976080;28;96661;-31
2023/04/18 10:01:44;;;;;;;6.07;2.78;;;;;;;10.65;65.56;102842.00;4976453;28;96896;-31
2023/04/18 10:04:11;;;;;;;4.28;2.70;;;;;;;11.00;64.14;102849.94;4976045;28;100896;-31
2023/04/18 10:06:38;;;;;;;4.75;2.47;;;;;;;11.06;63.99;102846.19;4976162;28;100785;-31
2023/04/18 10:09:05;;;;;;;4.50;2.72;;;;;;;11.04;63.92;102846.22;4976363;28;96466;-31
2023/04/18 10:11:31;;;;;;;4.30;2.58;;;;;;;11.10;63.99;102845.13;4976306;28;96895;-31
2023/04/18 10:14:01;;;;;;;4.35;2.75;;;;;;;11.06;63.46;102851.59;4977070;28;97491;-32
2023/04/18 10:16:28;;;;;;;3.35;2.22;;;;;;;10.94;63.71;102841.09;4976300;28;101017;-31
2023/04/18 10:18:53;;;;;;;5.20;3.03;;;;;;;10.90;64.11;102837.63;4976126;28;96589;-31
2023/04/18 10:21:20;;;;;;;4.10;2.35;;;;;;;11.02;63.95;102841.78;4977936;28;96790;-32
2023/04/18 10:23:47;;;;;;;4.72;2.35;;;;;;;11.01;63.86;102845.41;4975278;28;101323;-31
2023/04/18 10:26:13;;;;;;;3.85;2.47;;;;;;;11.10;63.25;102836.09;4975734;28;100762;-31
2023/04/18 10:28:53;;;;;;;7.97;2.60;;;;;;;11.14;64.03;102830.53;4975870;28;96695;-31
2023/04/18 10:31:21;;;;;;;7.28;2.05;;;;;;;11.20;62.95;102826.72;4975432;28;96871;-31
2023/04/18 10:33:48;;;;;;;4.13;2.15;;;;;;;11.22;63.46;102820.31;4976983;28;97911;-31
2023/04/18 10:36:16;;;;;;;4.00;1.98;;;;;;;11.27;62.56;102817.44;4975464;28;100761;-31
2023/04/18 10:38:59;;;;;;;7.05;2.80;;;;;;;11.47;61.76;102822.22;4975866;28;96561;-31
2023/04/18 10:41:32;;;;;;;4.57;2.25;;;;;;;11.57;62.56;102817.38;4976161;28;96889;-32
2023/04/18 10:44:06;;;;;;;4.40;2.50;;;;;;;11.62;62.58;102826.25;4975437;28;101200;-31
2023/04/18 10:46:37;;;;;;;4.20;2.47;;;;;;;11.55;62.53;102821.97;4976657;28;99230;-31
2023/04/18 10:49:12;;;;;;;6.50;3.63;;;;;;;11.43;61.93;102817.84;4975091;28;96731;-31
2023/04/18 10:51:38;;;;;;;3.53;1.80;;;;;;;11.41;62.56;102825.13;4975374;28;96940;-32
2023/04/18 10:54:08;;;;;;;3.08;1.95;;;;;;;11.45;62.07;102825.00;4976834;28;97510;-31
2023/04/18 10:56:33;;;;;;;3.03;1.58;;;;;;;11.43;61.79;102820.56;4975194;28;101027;-31
2023/04/18 10:59:01;;;;;;;2.75;1.67;;;;;;;11.55;61.46;102821.97;4976751;28;96625;-31
2023/04/18 11:01:29;;;;;;;8.30;1.80;;;;;;;11.73;62.06;102810.50;4976778;28;96835;-31
2023/04/18 11:03:55;;;;;;;3.38;2.03;;;;;;;11.87;60.75;102805.50;4975062;28;99122;-32
2023/04/18 11:06:21;;;;;;;2.63;1.55;;;;;;;11.80;60.00;102809.34;4976658;28;99293;-32
2023/04/18 11:08:50;;;;;;;2.95;1.95;;;;;;;12.07;60.71;102809.31;4975350;28;96728;-32
2023/04/18 11:11:15;;;;;;;2.72;1.75;;;;;;;12.19;59.66;102803.44;4975248;28;96879;-31
2023/04/18 11:13:54;;;;;;;3.50;1.90;;;;;;;12.05;59.82;102814.78;4975994;28;97366;-31
2023/04/18 11:16:30;;;;;;;2.38;1.65;;;;;;;11.89;60.59;102808.13;4974961;28;100795;-31
2023/04/18 11:18:56;;;;;;;2.38;1.52;;;;;;;11.79;60.15;102812.09;4975395;28;96620;-32
2023/04/18 11:21:28;;;;;;;3.10;1.65;;;;;;;11.65;60.90;102816.16;4976807;28;96781;-32
2023/04/18 11:23:57;;;;;;;;;;;;;;;11.62;61.82;102815.38;4976365;28;99432;-31
2023/04/18 11:26:26;;;;;;;1.83;1.10;;;;;;;11.56;62.06;102805.66;4975012;28;100762;-31
2023/04/18 11:28:55;;;;;;;2.47;1.50;;;;;;;11.53;61.04;102811.16;4975084;28;96720;-32